Time;durP1;ratioP1;P1;durP2;ratioP2;P2;SDS_P1;SDS_P2;PMS_P1;PMS_P2;Temp;Humidity;BMP_temperature;BMP_pressure;BME280_temperature;BME280_humidity;BME280_pressure;Samples;Min_cycle;Max_cycle;Signal;HPM_P1;HPM_P2
2021/11/04 00:39:49;;;;;;;;;;;;;;;;;;6123248;23;20289;-84
2021/11/04 00:42:49;;;;;;;;;;;;;;;;;;6165731;23;19928;-84
2021/11/04 00:45:37;;;;;;;;;;;;;;;;;;6164121;23;19920;-83
2021/11/04 00:48:25;;;;;;;;;;;;;;;;;;6115557;23;20342;-82
2021/11/04 00:50:59;;;;;;;;;;;;;;;;;;6116489;23;20346;-81
2021/11/04 00:53:33;;;;;;;;;;;;;;;;;;6139403;23;19920;-83
2021/11/04 00:59:08;;;;;;;;;;;;;;;;;;6163817;23;19921;-82
2021/11/04 01:04:58;;;;;;;;;;;;;;;;;;6139305;23;19920;-85
2021/11/04 01:07:30;;;;;;;;;;;;;;;;;;6111025;23;20370;-84
2021/11/04 01:10:06;;;;;;;;;;;;;;;;;;6113855;23;19920;-84
2021/11/04 01:12:37;;;;;;;;;;;;;;;;;;6136854;23;19925;-80
2021/11/04 01:15:07;;;;;;;;;;;;;;;;;;6112369;23;19920;-80
2021/11/04 01:17:48;;;;;;;;;;;;;;;;;;6136595;23;19920;-83
2021/11/04 01:20:17;;;;;;;;;;;;;;;;;;6113325;23;19920;-85
2021/11/04 01:23:00;;;;;;;;;;;;;;;;;;6112460;23;19931;-81
2021/11/04 01:25:32;;;;;;;;;;;;;;;;;;6112629;23;19931;-82
2021/11/04 01:28:08;;;;;;;;;;;;;;;;;;6160757;23;19925;-84
2021/11/04 01:30:38;;;;;;;;;;;;;;;;;;6138413;23;19921;-89
2021/11/04 01:33:08;;;;;;;;;;;;;;;;;;6113305;23;19931;-85
2021/11/04 01:35:40;;;;;;;;;;;;;;;;;;6138315;23;19921;-84
2021/11/04 01:38:13;;;;;;;;;;;;;;;;;;6136023;23;19920;-83
2021/11/04 01:40:42;;;;;;;;;;;;;;;;;;6135759;23;19925;-81
2021/11/04 01:43:11;;;;;;;;;;;;;;;;;;6160784;23;19927;-80
2021/11/04 01:45:41;;;;;;;;;;;;;;;;;;6114704;23;19920;-84
2021/11/04 01:48:15;;;;;;;;;;;;;;;;;;6113737;23;19943;-80
2021/11/04 01:50:45;;;;;;;;;;;;;;;;;;6148580;23;19927;-83
2021/11/04 01:56:15;;;;;;;;;;;;;;;;;;6110617;23;19928;-81
2021/11/04 01:58:45;;;;;;;;;;;;;;;;;;6111868;23;19920;-86
2021/11/04 02:01:29;;;;;;;;;;;;;;;;;;6111621;23;20358;-86
2021/11/04 02:04:15;;;;;;;;;;;;;;;;;;6135166;23;19921;-82
2021/11/04 02:06:47;;;;;;;;;;;;;;;;;;6147287;23;19921;-83
2021/11/04 02:09:21;;;;;;;;;;;;;;;;;;6136993;23;20201;-83
2021/11/04 02:11:55;;;;;;;;;;;;;;;;;;6138371;23;19920;-81
2021/11/04 02:14:25;;;;;;;;;;;;;;;;;;6115251;23;19920;-83
2021/11/04 02:16:54;;;;;;;;;;;;;;;;;;6114542;23;19927;-85
2021/11/04 02:19:26;;;;;;;;;;;;;;;;;;6114421;23;19924;-88
2021/11/04 02:21:56;;;;;;;;;;;;;;;;;;6114298;23;19921;-82
2021/11/04 02:24:29;;;;;;;;;;;;;;;;;;6139411;23;19921;-86
2021/11/04 02:26:59;;;;;;;;;;;;;;;;;;6110471;23;19927;-86
2021/11/04 02:29:27;;;;;;;;;;;;;;;;;;6109054;23;19921;-84
2021/11/04 02:31:55;;;;;;;;;;;;;;;;;;6113840;23;19921;-86
2021/11/04 02:34:28;;;;;;;;;;;;;;;;;;6113605;23;19943;-83
2021/11/04 02:36:56;;;;;;;;;;;;;;;;;;6126169;23;19911;-94
2021/11/04 02:39:26;;;;;;;;;;;;;;;;;;6132477;23;19953;-82
2021/11/04 02:41:54;;;;;;;;;;;;;;;;;;6109930;23;19921;-84
2021/11/04 02:44:25;;;;;;;;;;;;;;;;;;6110196;23;20261;-83
2021/11/04 02:46:54;;;;;;;;;;;;;;;;;;6109869;23;19927;-84
2021/11/04 02:49:23;;;;;;;;;;;;;;;;;;6106526;23;19925;-83
2021/11/04 02:51:52;;;;;;;;;;;;;;;;;;6109714;23;19927;-90
2021/11/04 02:54:20;;;;;;;;;;;;;;;;;;6114819;23;19921;-85
2021/11/04 02:56:49;;;;;;;;;;;;;;;;;;6114357;23;19921;-83
2021/11/04 02:59:18;;;;;;;;;;;;;;;;;;6115058;23;20342;-85
2021/11/04 03:01:49;;;;;;;;;;;;;;;;;;6114299;23;19927;-83
2021/11/04 03:04:18;;;;;;;;;;;;;;;;;;6115087;23;19943;-81
2021/11/04 03:06:46;;;;;;;;;;;;;;;;;;6115823;23;20440;-87
2021/11/04 03:09:14;;;;;;;;;;;;;;;;;;6115047;23;19920;-84
2021/11/04 03:11:43;;;;;;;;;;;;;;;;;;6114662;23;20248;-84
2021/11/04 03:14:11;;;;;;;;;;;;;;;;;;6116647;23;19927;-81
2021/11/04 03:16:40;;;;;;;;;;;;;;;;;;6114824;23;19931;-85
2021/11/04 03:19:11;;;;;;;;;;;;;;;;;;6139120;23;19927;-92
2021/11/04 03:21:44;;;;;;;;;;;;;;;;;;6115435;23;19926;-81
2021/11/04 03:24:13;;;;;;;;;;;;;;;;;;6115238;23;20337;-85
2021/11/04 03:26:42;;;;;;;;;;;;;;;;;;6139465;23;19920;-80
2021/11/04 03:29:10;;;;;;;;;;;;;;;;;;6115049;23;19921;-81
2021/11/04 03:31:38;;;;;;;;;;;;;;;;;;6114098;23;19931;-81
2021/11/04 03:34:07;;;;;;;;;;;;;;;;;;6137290;23;19920;-88
2021/11/04 03:36:36;;;;;;;;;;;;;;;;;;6139272;23;19942;-89
2021/11/04 03:39:05;;;;;;;;;;;;;;;;;;6117319;23;19924;-90
2021/11/04 03:41:34;;;;;;;;;;;;;;;;;;6118053;23;19920;-84
2021/11/04 03:44:02;;;;;;;;;;;;;;;;;;6142370;23;19920;-83
2021/11/04 03:46:30;;;;;;;;;;;;;;;;;;6117746;23;19927;-83
2021/11/04 03:48:58;;;;;;;;;;;;;;;;;;6141753;23;19927;-86
2021/11/04 03:51:27;;;;;;;;;;;;;;;;;;6143314;23;19920;-81
2021/11/04 03:53:56;;;;;;;;;;;;;;;;;;6118460;23;20330;-82
2021/11/04 03:56:25;;;;;;;;;;;;;;;;;;6117051;23;19931;-82
2021/11/04 03:58:53;;;;;;;;;;;;;;;;;;6115665;23;20280;-82
2021/11/04 04:01:21;;;;;;;;;;;;;;;;;;6117840;23;19921;-83
2021/11/04 04:03:50;;;;;;;;;;;;;;;;;;6115851;23;19920;-85
2021/11/04 04:06:21;;;;;;;;;;;;;;;;;;6140600;23;19920;-85
2021/11/04 04:08:50;;;;;;;;;;;;;;;;;;6115466;23;19931;-82
2021/11/04 04:11:20;;;;;;;;;;;;;;;;;;6115772;23;19921;-89
2021/11/04 04:13:50;;;;;;;;;;;;;;;;;;6116026;23;19931;-86
2021/11/04 04:16:19;;;;;;;;;;;;;;;;;;6115284;23;19927;-89
2021/11/04 04:18:48;;;;;;;;;;;;;;;;;;6113347;23;19927;-85
2021/11/04 04:21:16;;;;;;;;;;;;;;;;;;6114040;23;20112;-82
2021/11/04 04:23:44;;;;;;;;;;;;;;;;;;6114579;23;19928;-90
2021/11/04 04:26:13;;;;;;;;;;;;;;;;;;6139372;23;19927;-87
2021/11/04 04:28:43;;;;;;;;;;;;;;;;;;6112327;23;20223;-86
2021/11/04 04:31:12;;;;;;;;;;;;;;;;;;6105046;23;19927;-87
2021/11/04 04:33:40;;;;;;;;;;;;;;;;;;6102268;23;20150;-86
2021/11/04 04:36:09;;;;;;;;;;;;;;;;;;6101948;23;20270;-89
2021/11/04 04:38:38;;;;;;;;;;;;;;;;;;6101475;23;19921;-88
2021/11/04 04:41:06;;;;;;;;;;;;;;;;;;6124992;23;19924;-87
2021/11/04 04:43:34;;;;;;;;;;;;;;;;;;6077397;23;19921;-85
2021/11/04 04:46:04;;;;;;;;;;;;;;;;;;6075985;23;19966;-86
2021/11/04 04:48:32;;;;;;;;;;;;;;;;;;6100059;23;19921;-85
2021/11/04 04:51:01;;;;;;;;;;;;;;;;;;6076394;23;19920;-86
2021/11/04 04:53:29;;;;;;;;;;;;;;;;;;6100201;23;19925;-86
2021/11/04 04:55:57;;;;;;;;;;;;;;;;;;6113658;23;19915;-90
2021/11/04 04:58:25;;;;;;;;;;;;;;;;;;6101957;23;19909;-90
2021/11/04 05:00:54;;;;;;;;;;;;;;;;;;6087394;23;19921;-86
2021/11/04 05:03:23;;;;;;;;;;;;;;;;;;6082098;23;20296;-85
2021/11/04 05:05:52;;;;;;;;;;;;;;;;;;6130642;23;20363;-86
2021/11/04 05:08:20;;;;;;;;;;;;;;;;;;6106418;23;19924;-87
2021/11/04 05:10:48;;;;;;;;;;;;;;;;;;6105368;23;20243;-89
2021/11/04 05:13:16;;;;;;;;;;;;;;;;;;6081850;23;19925;-86
2021/11/04 05:15:45;;;;;;;;;;;;;;;;;;6106974;23;20113;-84
2021/11/04 05:18:13;;;;;;;;;;;;;;;;;;6107314;23;21640;-84
2021/11/04 05:20:43;;;;;;;;;;;;;;;;;;6111061;23;19911;-91
2021/11/04 05:23:11;;;;;;;;;;;;;;;;;;6101784;23;19952;-90
2021/11/04 05:25:39;;;;;;;;;;;;;;;;;;6126145;23;19948;-90
2021/11/04 05:28:08;;;;;;;;;;;;;;;;;;6125017;23;19945;-90
2021/11/04 05:30:36;;;;;;;;;;;;;;;;;;6154659;23;19941;-91
2021/11/04 05:33:04;;;;;;;;;;;;;;;;;;6129734;23;19956;-90
2021/11/04 05:35:32;;;;;;;;;;;;;;;;;;6114917;23;19979;-84
2021/11/04 05:38:02;;;;;;;;;;;;;;;;;;6135487;23;19927;-88
2021/11/04 05:40:33;;;;;;;;;;;;;;;;;;6136250;23;19931;-84
2021/11/04 05:43:01;;;;;;;;;;;;;;;;;;6112122;23;19927;-85
2021/11/04 05:45:30;;;;;;;;;;;;;;;;;;6136552;23;19921;-82
2021/11/04 05:47:58;;;;;;;;;;;;;;;;;;6111668;23;20311;-82
2021/11/04 05:50:26;;;;;;;;;;;;;;;;;;6111438;23;19927;-83
2021/11/04 05:52:55;;;;;;;;;;;;;;;;;;6170045;23;19909;-83
2021/11/04 05:55:24;;;;;;;;;;;;;;;;;;6176063;23;20087;-86
2021/11/04 05:57:53;;;;;;;;;;;;;;;;;;6126485;23;19920;-89
2021/11/04 06:00:21;;;;;;;;;;;;;;;;;;6152855;23;19920;-90
2021/11/04 06:02:49;;;;;;;;;;;;;;;;;;6117282;23;19930;-82
2021/11/04 06:05:17;;;;;;;;;;;;;;;;;;6137212;23;19924;-91
2021/11/04 06:07:46;;;;;;;;;;;;;;;;;;6112330;23;19920;-91
2021/11/04 06:10:16;;;;;;;;;;;;;;;;;;6117940;23;19921;-89
2021/11/04 06:12:45;;;;;;;;;;;;;;;;;;6124055;23;19921;-89
2021/11/04 06:15:14;;;;;;;;;;;;;;;;;;6144959;23;20135;-84
2021/11/04 06:17:42;;;;;;;;;;;;;;;;;;6171235;23;19909;-90
2021/11/04 06:20:10;;;;;;;;;;;;;;;;;;6118003;23;19927;-88
2021/11/04 06:22:39;;;;;;;;;;;;;;;;;;6135602;23;19928;-86
2021/11/04 06:25:07;;;;;;;;;;;;;;;;;;6109905;23;19935;-87
2021/11/04 06:27:35;;;;;;;;;;;;;;;;;;6109104;23;19942;-87
2021/11/04 06:30:06;;;;;;;;;;;;;;;;;;6157385;23;19921;-89
2021/11/04 06:32:35;;;;;;;;;;;;;;;;;;6108160;23;20196;-87
2021/11/04 06:35:03;;;;;;;;;;;;;;;;;;6108088;23;19924;-91
2021/11/04 06:37:31;;;;;;;;;;;;;;;;;;6132510;23;20230;-86
2021/11/04 06:39:59;;;;;;;;;;;;;;;;;;6107648;23;19921;-85
2021/11/04 06:42:28;;;;;;;;;;;;;;;;;;6108252;23;19921;-85
2021/11/04 06:44:56;;;;;;;;;;;;;;;;;;6132348;23;19921;-86
2021/11/04 06:47:27;;;;;;;;;;;;;;;;;;6110133;23;19921;-85
2021/11/04 06:49:56;;;;;;;;;;;;;;;;;;6110887;23;19921;-89
2021/11/04 06:52:25;;;;;;;;;;;;;;;;;;6133698;23;19920;-85
2021/11/04 06:54:55;;;;;;;;;;;;;;;;;;6131810;23;19940;-92
2021/11/04 06:57:24;;;;;;;;;;;;;;;;;;6106576;23;19921;-90
2021/11/04 06:59:53;;;;;;;;;;;;;;;;;;6105581;23;19920;-88
2021/11/04 07:02:26;;;;;;;;;;;;;;;;;;6106588;23;20352;-87
2021/11/04 07:04:56;;;;;;;;;;;;;;;;;;6106619;23;19921;-86
2021/11/04 07:07:25;;;;;;;;;;;;;;;;;;6106711;23;19920;-87
2021/11/04 07:09:53;;;;;;;;;;;;;;;;;;6131279;23;19920;-89
2021/11/04 07:12:22;;;;;;;;;;;;;;;;;;6119039;23;19913;-94
2021/11/04 07:14:50;;;;;;;;;;;;;;;;;;6132209;23;19962;-94
2021/11/04 07:17:18;;;;;;;;;;;;;;;;;;6132131;23;20027;-93
2021/11/04 07:19:47;;;;;;;;;;;;;;;;;;6155857;23;19924;-91
2021/11/04 07:22:29;;;;;;;;;;;;;;;;;;6131290;23;19964;-93
2021/11/04 07:25:01;;;;;;;;;;;;;;;;;;6112542;23;19920;-85
2021/11/04 07:27:32;;;;;;;;;;;;;;;;;;6110785;23;19931;-90
2021/11/04 07:30:01;;;;;;;;;;;;;;;;;;6110880;23;19921;-87
2021/11/04 07:32:30;;;;;;;;;;;;;;;;;;6137220;23;19927;-85
2021/11/04 07:34:58;;;;;;;;;;;;;;;;;;6111415;23;19921;-90
2021/11/04 07:37:30;;;;;;;;;;;;;;;;;;6111629;23;19924;-91
2021/11/04 07:39:59;;;;;;;;;;;;;;;;;;6110369;23;19925;-89
2021/11/04 07:42:28;;;;;;;;;;;;;;;;;;6160647;23;19927;-89
2021/11/04 07:44:57;;;;;;;;;;;;;;;;;;6137130;23;19927;-89
2021/11/04 07:47:25;;;;;;;;;;;;;;;;;;6136111;23;19925;-87
2021/11/04 07:49:54;;;;;;;;;;;;;;;;;;6112102;23;19927;-86
2021/11/04 07:52:22;;;;;;;;;;;;;;;;;;6110233;23;19930;-88
2021/11/04 07:54:52;;;;;;;;;;;;;;;;;;6134873;23;19930;-84
2021/11/04 07:57:20;;;;;;;;;;;;;;;;;;6133604;23;19921;-86
2021/11/04 07:59:49;;;;;;;;;;;;;;;;;;6107955;23;19924;-87
2021/11/04 08:02:17;;;;;;;;;;;;;;;;;;6133027;23;19920;-88
2021/11/04 08:04:45;;;;;;;;;;;;;;;;;;6109184;23;20365;-87
2021/11/04 08:07:13;;;;;;;;;;;;;;;;;;6108131;23;19921;-90
2021/11/04 08:09:42;;;;;;;;;;;;;;;;;;6130396;23;19921;-89
2021/11/04 08:12:12;;;;;;;;;;;;;;;;;;6109718;23;19921;-89
2021/11/04 08:14:41;;;;;;;;;;;;;;;;;;6105161;23;19931;-90
2021/11/04 08:17:10;;;;;;;;;;;;;;;;;;6131156;23;19924;-91
2021/11/04 08:19:38;;;;;;;;;;;;;;;;;;6106445;23;19932;-90
2021/11/04 08:22:06;;;;;;;;;;;;;;;;;;6106393;23;19943;-89
2021/11/04 08:24:35;;;;;;;;;;;;;;;;;;6130643;23;19927;-90
2021/11/04 08:27:03;;;;;;;;;;;;;;;;;;6131435;23;19925;-88
2021/11/04 08:29:33;;;;;;;;;;;;;;;;;;6106351;23;19927;-88
2021/11/04 08:32:01;;;;;;;;;;;;;;;;;;6106829;23;19920;-88
2021/11/04 08:34:29;;;;;;;;;;;;;;;;;;6108116;23;19925;-88
2021/11/04 08:36:58;;;;;;;;;;;;;;;;;;6130890;23;19920;-90
2021/11/04 08:39:26;;;;;;;;;;;;;;;;;;6158412;23;19921;-89
2021/11/04 08:41:54;;;;;;;;;;;;;;;;;;6131438;23;19920;-84
2021/11/04 08:44:23;;;;;;;;;;;;;;;;;;6108073;23;20121;-87
2021/11/04 08:46:53;;;;;;;;;;;;;;;;;;6109152;23;19928;-86
2021/11/04 08:49:21;;;;;;;;;;;;;;;;;;6107662;23;19920;-88
2021/11/04 08:51:52;;;;;;;;;;;;;;;;;;6108013;23;20361;-88
2021/11/04 08:54:21;;;;;;;;;;;;;;;;;;6107018;23;20349;-85
2021/11/04 08:56:49;;;;;;;;;;;;;;;;;;6107624;23;19920;-89
2021/11/04 08:59:18;;;;;;;;;;;;;;;;;;6104889;23;19920;-90
2021/11/04 09:01:46;;;;;;;;;;;;;;;;;;6130181;23;19920;-87
2021/11/04 09:04:19;;;;;;;;;;;;;;;;;;6128775;23;19921;-90
2021/11/04 09:06:48;;;;;;;;;;;;;;;;;;6103741;23;19920;-89
2021/11/04 09:09:17;;;;;;;;;;;;;;;;;;6106841;23;19924;-84
2021/11/04 09:11:45;;;;;;;;;;;;;;;;;;6106152;23;19928;-86
2021/11/04 09:14:13;;;;;;;;;;;;;;;;;;6130229;23;19931;-88
2021/11/04 09:16:42;;;;;;;;;;;;;;;;;;6107500;23;19924;-91
2021/11/04 09:19:10;;;;;;;;;;;;;;;;;;6108744;23;19927;-90
2021/11/04 09:21:40;;;;;;;;;;;;;;;;;;6133374;23;19925;-88
2021/11/04 09:24:08;;;;;;;;;;;;;;;;;;6132912;23;20262;-90
2021/11/04 09:26:37;;;;;;;;;;;;;;;;;;6131779;23;19927;-87
2021/11/04 09:29:05;;;;;;;;;;;;;;;;;;6131109;23;19935;-89
2021/11/04 09:31:34;;;;;;;;;;;;;;;;;;6107162;23;19927;-88
2021/11/04 09:34:02;;;;;;;;;;;;;;;;;;6107078;23;19934;-88
2021/11/04 09:36:32;;;;;;;;;;;;;;;;;;6121415;23;19909;-93
2021/11/04 09:39:04;;;;;;;;;;;;;;;;;;6156521;23;19948;-89
2021/11/04 09:41:35;;;;;;;;;;;;;;;;;;6133819;23;20273;-88
2021/11/04 09:44:04;;;;;;;;;;;;;;;;;;6108754;23;19925;-91
2021/11/04 09:46:34;;;;;;;;;;;;;;;;;;6110237;23;19931;-90
2021/11/04 09:49:03;;;;;;;;;;;;;;;;;;6135881;23;19939;-89
2021/11/04 09:51:31;;;;;;;;;;;;;;;;;;6111432;23;19920;-88
2021/11/04 09:54:00;;;;;;;;;;;;;;;;;;6109194;23;19920;-86
2021/11/04 09:56:29;;;;;;;;;;;;;;;;;;6108721;23;19925;-86
2021/11/04 09:58:58;;;;;;;;;;;;;;;;;;6133169;23;19927;-88
2021/11/04 10:01:27;;;;;;;;;;;;;;;;;;6108898;23;19921;-89
2021/11/04 10:03:56;;;;;;;;;;;;;;;;;;6131479;23;19927;-90
2021/11/04 10:06:25;;;;;;;;;;;;;;;;;;6131387;23;19928;-89
2021/11/04 10:08:53;;;;;;;;;;;;;;;;;;6107544;23;19924;-89
2021/11/04 10:11:22;;;;;;;;;;;;;;;;;;6107476;23;19920;-89
2021/11/04 10:13:52;;;;;;;;;;;;;;;;;;6130496;23;19927;-89
2021/11/04 10:16:21;;;;;;;;;;;;;;;;;;6141684;23;19920;-85
2021/11/04 10:18:55;;;;;;;;;;;;;;;;;;6132200;23;19931;-89
2021/11/04 10:21:40;;;;;;;;;;;;;;;;;;6139856;23;19987;-87
2021/11/04 10:24:15;;;;;;;;;;;;;;;;;;6131134;23;20262;-88
2021/11/04 10:26:43;;;;;;;;;;;;;;;;;;6105168;23;19921;-86
2021/11/04 10:29:14;;;;;;;;;;;;;;;;;;6128873;23;19925;-87
2021/11/04 10:31:43;;;;;;;;;;;;;;;;;;6105913;23;19921;-89
2021/11/04 10:34:17;;;;;;;;;;;;;;;;;;6105614;23;19932;-88
2021/11/04 10:36:45;;;;;;;;;;;;;;;;;;6130636;23;19920;-91
2021/11/04 10:39:13;;;;;;;;;;;;;;;;;;6105451;23;19921;-90
2021/11/04 10:41:43;;;;;;;;;;;;;;;;;;6105290;23;20382;-88
2021/11/04 10:44:15;;;;;;;;;;;;;;;;;;6129277;23;19927;-86
2021/11/04 10:46:47;;;;;;;;;;;;;;;;;;6108871;23;19927;-86
2021/11/04 10:49:16;;;;;;;;;;;;;;;;;;6135924;23;19931;-87
2021/11/04 10:51:45;;;;;;;;;;;;;;;;;;6136197;23;19930;-85
2021/11/04 10:54:14;;;;;;;;;;;;;;;;;;6137184;23;20364;-88
2021/11/04 10:56:43;;;;;;;;;;;;;;;;;;6112738;23;19928;-86
2021/11/04 10:59:11;;;;;;;;;;;;;;;;;;6110520;23;20269;-86
2021/11/04 11:01:42;;;;;;;;;;;;;;;;;;6111219;23;19927;-87
2021/11/04 11:04:11;;;;;;;;;;;;;;;;;;6107712;23;19920;-88
2021/11/04 11:06:41;;;;;;;;;;;;;;;;;;6131577;23;19920;-89
2021/11/04 11:09:10;;;;;;;;;;;;;;;;;;6106493;23;19927;-88
2021/11/04 11:11:39;;;;;;;;;;;;;;;;;;6131662;23;19921;-87
2021/11/04 11:14:08;;;;;;;;;;;;;;;;;;6109354;23;19921;-88
2021/11/04 11:16:38;;;;;;;;;;;;;;;;;;6107960;23;20252;-87
2021/11/04 11:19:08;;;;;;;;;;;;;;;;;;6132589;23;19936;-87
2021/11/04 11:21:40;;;;;;;;;;;;;;;;;;6106905;23;19921;-88
2021/11/04 11:24:09;;;;;;;;;;;;;;;;;;6133398;23;19927;-89
2021/11/04 11:26:37;;;;;;;;;;;;;;;;;;6131195;23;19975;-85
2021/11/04 11:29:06;;;;;;;;;;;;;;;;;;6157809;23;19932;-88
2021/11/04 11:31:34;;;;;;;;;;;;;;;;;;6108054;23;19921;-88
2021/11/04 11:34:26;;;;;;;;;;;;;;;;;;6106642;23;19940;-91
2021/11/04 11:37:19;;;;;;;;;;;;;;;;;;6130466;23;19935;-92
2021/11/04 11:40:08;;;;;;;;;;;;;;;;;;6100739;23;19920;-91
2021/11/04 11:42:37;;;;;;;;;;;;;;;;;;6111150;23;19925;-90
2021/11/04 11:45:11;;;;;;;;;;;;;;;;;;6129761;23;19966;-88
2021/11/04 11:47:40;;;;;;;;;;;;;;;;;;6106889;23;19920;-91
2021/11/04 11:50:20;;;;;;;;;;;;;;;;;;6107127;23;19924;-89
2021/11/04 11:52:49;;;;;;;;;;;;;;;;;;6166268;23;20269;-86
2021/11/04 11:55:18;;;;;;;;;;;;;;;;;;6106603;23;19928;-90
2021/11/04 11:58:06;;;;;;;;;;;;;;;;;;6147514;23;19915;-90
2021/11/04 12:00:47;;;;;;;;;;;;;;;;;;6132330;23;19968;-93
2021/11/04 12:03:31;;;;;;;;;;;;;;;;;;6108303;23;19920;-87
2021/11/04 12:06:01;;;;;;;;;;;;;;;;;;6108907;23;19920;-85
2021/11/04 12:08:34;;;;;;;;;;;;;;;;;;6109447;23;19921;-85
2021/11/04 12:11:03;;;;;;;;;;;;;;;;;;6109548;23;19928;-88
2021/11/04 12:13:32;;;;;;;;;;;;;;;;;;6109674;23;19921;-88
2021/11/04 12:16:14;;;;;;;;;;;;;;;;;;6109797;23;19920;-87
2021/11/04 12:18:52;;;;;;;;;;;;;;;;;;6158372;23;20262;-87
2021/11/04 12:21:26;;;;;;;;;;;;;;;;;;6109410;23;19921;-88
2021/11/04 12:23:55;;;;;;;;;;;;;;;;;;6108544;23;19921;-88
2021/11/04 12:26:30;;;;;;;;;;;;;;;;;;6106102;23;19921;-91
2021/11/04 12:28:59;;;;;;;;;;;;;;;;;;6104802;23;20253;-93
2021/11/04 12:31:28;;;;;;;;;;;;;;;;;;6129866;23;19921;-89
2021/11/04 12:33:56;;;;;;;;;;;;;;;;;;6129222;23;19931;-90
2021/11/04 12:36:30;;;;;;;;;;;;;;;;;;6105019;23;20252;-91
2021/11/04 12:38:59;;;;;;;;;;;;;;;;;;6103410;23;19920;-90
2021/11/04 12:41:28;;;;;;;;;;;;;;;;;;6103743;23;19931;-91
2021/11/04 12:44:01;;;;;;;;;;;;;;;;;;6103085;23;19931;-89
2021/11/04 12:46:30;;;;;;;;;;;;;;;;;;6128038;23;19921;-90
2021/11/04 12:48:59;;;;;;;;;;;;;;;;;;6127629;23;19921;-91
2021/11/04 12:51:28;;;;;;;;;;;;;;;;;;6103278;23;20368;-90
2021/11/04 12:53:58;;;;;;;;;;;;;;;;;;6104135;23;19925;-91
2021/11/04 12:56:41;;;;;;;;;;;;;;;;;;6137960;23;19920;-91
2021/11/04 12:59:10;;;;;;;;;;;;;;;;;;6103604;23;20364;-91
2021/11/04 13:01:58;;;;;;;;;;;;;;;;;;6128422;23;20253;-90
2021/11/04 13:04:27;;;;;;;;;;;;;;;;;;6104884;23;19924;-91
2021/11/04 13:06:56;;;;;;;;;;;;;;;;;;6105152;23;20258;-92
2021/11/04 13:09:26;;;;;;;;;;;;;;;;;;6106420;23;19921;-89
2021/11/04 13:12:08;;;;;;;;;;;;;;;;;;6104736;23;19927;-91
2021/11/04 13:14:52;;;;;;;;;;;;;;;;;;6104296;23;19920;-89
2021/11/04 13:17:21;;;;;;;;;;;;;;;;;;6103542;23;19920;-89
2021/11/04 13:19:56;;;;;;;;;;;;;;;;;;6105703;23;19920;-91
2021/11/04 13:22:25;;;;;;;;;;;;;;;;;;6107176;23;19920;-92
2021/11/04 13:24:56;;;;;;;;;;;;;;;;;;6109311;23;19928;-92
2021/11/04 13:27:25;;;;;;;;;;;;;;;;;;6133004;23;19927;-92
2021/11/04 13:29:53;;;;;;;;;;;;;;;;;;6108070;23;19921;-92
2021/11/04 13:32:23;;;;;;;;;;;;;;;;;;6107149;23;19924;-92
2021/11/04 13:34:52;;;;;;;;;;;;;;;;;;6107638;23;19927;-90
2021/11/04 13:37:21;;;;;;;;;;;;;;;;;;6105868;23;19920;-90
2021/11/04 13:39:49;;;;;;;;;;;;;;;;;;6134129;23;19921;-91
2021/11/04 13:42:23;;;;;;;;;;;;;;;;;;6155146;23;19932;-89
2021/11/04 13:44:51;;;;;;;;;;;;;;;;;;6138145;23;19931;-90
2021/11/04 13:47:32;;;;;;;;;;;;;;;;;;6102914;23;19927;-91
2021/11/04 13:50:00;;;;;;;;;;;;;;;;;;6102367;23;19920;-91
2021/11/04 13:52:28;;;;;;;;;;;;;;;;;;6127003;23;19921;-91
2021/11/04 13:54:57;;;;;;;;;;;;;;;;;;6103138;23;19920;-92
2021/11/04 13:57:26;;;;;;;;;;;;;;;;;;6104533;23;19935;-92
2021/11/04 13:59:56;;;;;;;;;;;;;;;;;;6107772;23;19921;-91
2021/11/04 14:02:25;;;;;;;;;;;;;;;;;;6128512;23;19920;-87
2021/11/04 14:04:54;;;;;;;;;;;;;;;;;;6102988;23;19921;-93
2021/11/04 14:07:23;;;;;;;;;;;;;;;;;;6103318;23;19920;-89
2021/11/04 14:09:55;;;;;;;;;;;;;;;;;;6103277;23;19921;-91
2021/11/04 14:12:27;;;;;;;;;;;;;;;;;;6138252;23;20103;-89
2021/11/04 14:14:56;;;;;;;;;;;;;;;;;;6104357;23;20377;-91
2021/11/04 14:17:25;;;;;;;;;;;;;;;;;;6105952;23;19921;-89
2021/11/04 14:19:55;;;;;;;;;;;;;;;;;;6123242;23;19909;-93
2021/11/04 14:22:23;;;;;;;;;;;;;;;;;;6131435;23;19944;-88
2021/11/04 14:24:51;;;;;;;;;;;;;;;;;;6107890;23;19920;-90
2021/11/04 14:27:19;;;;;;;;;;;;;;;;;;6105378;23;19920;-89
2021/11/04 14:29:49;;;;;;;;;;;;;;;;;;6129718;23;19924;-88
2021/11/04 14:32:19;;;;;;;;;;;;;;;;;;6104989;23;19928;-91
2021/11/04 14:34:47;;;;;;;;;;;;;;;;;;6104906;23;19927;-86
2021/11/04 14:37:15;;;;;;;;;;;;;;;;;;6129375;23;19920;-89
2021/11/04 14:39:44;;;;;;;;;;;;;;;;;;6129405;23;20333;-89
2021/11/04 14:42:12;;;;;;;;;;;;;;;;;;6129909;23;20345;-88
2021/11/04 14:44:40;;;;;;;;;;;;;;;;;;6105145;23;19920;-89
2021/11/04 14:47:10;;;;;;;;;;;;;;;;;;6129556;23;19925;-90
2021/11/04 14:49:39;;;;;;;;;;;;;;;;;;6104975;23;19936;-90
2021/11/04 14:52:07;;;;;;;;;;;;;;;;;;6105253;23;19927;-90
2021/11/04 14:54:36;;;;;;;;;;;;;;;;;;6105881;23;19924;-89
2021/11/04 14:57:04;;;;;;;;;;;;;;;;;;6131764;23;19920;-89
2021/11/04 14:59:33;;;;;;;;;;;;;;;;;;6106591;23;19924;-88
2021/11/04 15:02:01;;;;;;;;;;;;;;;;;;6105425;23;19928;-91
2021/11/04 15:04:31;;;;;;;;;;;;;;;;;;6105531;23;19925;-89
2021/11/04 15:06:59;;;;;;;;;;;;;;;;;;6105180;23;20225;-87
2021/11/04 15:09:27;;;;;;;;;;;;;;;;;;6129632;23;19925;-89
2021/11/04 15:11:55;;;;;;;;;;;;;;;;;;6105307;23;19920;-91
2021/11/04 15:14:24;;;;;;;;;;;;;;;;;;6129336;23;20235;-89
2021/11/04 15:16:52;;;;;;;;;;;;;;;;;;6106018;23;19920;-90
2021/11/04 15:19:21;;;;;;;;;;;;;;;;;;6105652;23;19921;-88
2021/11/04 15:21:51;;;;;;;;;;;;;;;;;;6106112;23;19935;-88
2021/11/04 15:24:20;;;;;;;;;;;;;;;;;;6106197;23;19931;-87
2021/11/04 15:26:50;;;;;;;;;;;;;;;;;;6105082;23;19920;-88
2021/11/04 15:29:18;;;;;;;;;;;;;;;;;;6105205;23;20279;-90
2021/11/04 15:31:46;;;;;;;;;;;;;;;;;;6104733;23;19920;-91
2021/11/04 15:34:15;;;;;;;;;;;;;;;;;;6104414;23;19927;-88
2021/11/04 15:36:43;;;;;;;;;;;;;;;;;;6130266;23;19943;-89
2021/11/04 15:39:13;;;;;;;;;;;;;;;;;;6129156;23;19921;-90
2021/11/04 15:41:41;;;;;;;;;;;;;;;;;;6129623;23;20277;-88
2021/11/04 15:44:10;;;;;;;;;;;;;;;;;;6129374;23;19935;-88
2021/11/04 15:46:40;;;;;;;;;;;;;;;;;;6129147;23;20354;-90
2021/11/04 15:49:09;;;;;;;;;;;;;;;;;;6105012;23;20387;-92
2021/11/04 15:51:37;;;;;;;;;;;;;;;;;;6104900;23;20342;-90
2021/11/04 15:54:05;;;;;;;;;;;;;;;;;;6105371;23;19929;-88
2021/11/04 15:56:35;;;;;;;;;;;;;;;;;;6104673;23;19929;-91
2021/11/04 15:59:06;;;;;;;;;;;;;;;;;;6136442;23;19921;-92
2021/11/04 16:01:35;;;;;;;;;;;;;;;;;;6117263;23;20346;-89
2021/11/04 16:04:03;;;;;;;;;;;;;;;;;;6105044;23;20250;-91
2021/11/04 16:06:32;;;;;;;;;;;;;;;;;;6128952;23;20353;-91
2021/11/04 16:09:01;;;;;;;;;;;;;;;;;;6129369;23;19928;-91
2021/11/04 16:11:30;;;;;;;;;;;;;;;;;;6105072;23;19931;-90
2021/11/04 16:14:00;;;;;;;;;;;;;;;;;;6106443;23;19920;-90
2021/11/04 16:16:28;;;;;;;;;;;;;;;;;;6104994;23;19927;-89
2021/11/04 16:18:57;;;;;;;;;;;;;;;;;;6104803;23;19924;-89
2021/11/04 16:21:30;;;;;;;;;;;;;;;;;;6105163;23;19928;-90
2021/11/04 16:24:01;;;;;;;;;;;;;;;;;;6129603;23;19946;-90
2021/11/04 16:26:29;;;;;;;;;;;;;;;;;;6129125;23;19921;-89
2021/11/04 16:28:58;;;;;;;;;;;;;;;;;;6128569;23;19921;-89
2021/11/04 16:31:28;;;;;;;;;;;;;;;;;;6104501;23;19925;-91
2021/11/04 16:33:56;;;;;;;;;;;;;;;;;;6104861;23;20265;-91
2021/11/04 16:36:25;;;;;;;;;;;;;;;;;;6105759;23;20227;-90
2021/11/04 16:38:54;;;;;;;;;;;;;;;;;;6106379;23;20226;-91
2021/11/04 16:41:22;;;;;;;;;;;;;;;;;;6120947;23;19928;-91
2021/11/04 16:43:50;;;;;;;;;;;;;;;;;;6118332;23;19921;-92
2021/11/04 16:46:20;;;;;;;;;;;;;;;;;;6129507;23;19927;-91
2021/11/04 16:48:52;;;;;;;;;;;;;;;;;;6129390;23;19927;-93
2021/11/04 16:51:20;;;;;;;;;;;;;;;;;;6105955;23;19928;-91
2021/11/04 16:53:48;;;;;;;;;;;;;;;;;;6106379;23;20046;-91
2021/11/04 16:56:17;;;;;;;;;;;;;;;;;;6105887;23;20261;-90
2021/11/04 16:58:45;;;;;;;;;;;;;;;;;;6105291;23;19928;-90
2021/11/04 17:01:15;;;;;;;;;;;;;;;;;;6105554;23;19921;-91
2021/11/04 17:03:43;;;;;;;;;;;;;;;;;;6131617;23;19924;-92
2021/11/04 17:06:15;;;;;;;;;;;;;;;;;;6128735;23;19936;-91
2021/11/04 17:08:44;;;;;;;;;;;;;;;;;;6129663;23;20235;-91
2021/11/04 17:11:13;;;;;;;;;;;;;;;;;;6128558;23;20368;-90
2021/11/04 17:13:41;;;;;;;;;;;;;;;;;;6104054;23;20492;-89
2021/11/04 17:16:09;;;;;;;;;;;;;;;;;;6104597;23;19928;-91
2021/11/04 17:18:38;;;;;;;;;;;;;;;;;;6104263;23;20342;-90
2021/11/04 17:21:06;;;;;;;;;;;;;;;;;;6104123;23;20345;-90
2021/11/04 17:23:36;;;;;;;;;;;;;;;;;;6104274;23;20265;-87
2021/11/04 17:26:04;;;;;;;;;;;;;;;;;;6104261;23;19927;-90
2021/11/04 17:28:32;;;;;;;;;;;;;;;;;;6128773;23;19925;-89
2021/11/04 17:31:01;;;;;;;;;;;;;;;;;;6128890;23;19920;-91
2021/11/04 17:33:29;;;;;;;;;;;;;;;;;;6104339;23;19924;-90
2021/11/04 17:35:57;;;;;;;;;;;;;;;;;;6131163;23;20259;-89
2021/11/04 17:38:26;;;;;;;;;;;;;;;;;;6105184;23;20342;-87
2021/11/04 17:40:55;;;;;;;;;;;;;;;;;;6129158;23;19920;-90
2021/11/04 17:43:24;;;;;;;;;;;;;;;;;;6104156;23;19932;-87
2021/11/04 17:45:52;;;;;;;;;;;;;;;;;;6104005;23;20038;-89
2021/11/04 17:48:22;;;;;;;;;;;;;;;;;;6104016;23;20342;-89
2021/11/04 17:50:52;;;;;;;;;;;;;;;;;;6104084;23;21394;-91
2021/11/04 17:53:21;;;;;;;;;;;;;;;;;;6104456;23;19927;-89